Terminal Aerodrome Forecast
Issued by NWS

Home | Current Version | Previous Version | Text Only | Print | Product List | Glossary On
Versions: 1 2 3 4 5 6 7 8 9 10 11 12 13 14 15 16 17 18 19 20
000
FTUS46 KLOX 271900 AAB
TAFPMD
TAF AMD
KPMD 271922Z 2719/2818 VRB03KT P6SM FEW011 SCT018 OVC050
      TEMPO 2719/2723 BKN018
     FM272300 29008KT P6SM SCT040
     FM280300 VRB05KT P6SM SCT200=

USA.gov is the U.S. government's official web portal to all federal, state and local government web resources and services.